Time;durP1;ratioP1;P1;durP2;ratioP2;P2;SDS_P1;SDS_P2;PMS_P1;PMS_P2;Temp;Humidity;BMP_temperature;BMP_pressure;BME280_temperature;BME280_humidity;BME280_pressure;Samples;Min_cycle;Max_cycle;Signal;HPM_P1;HPM_P2
2023/05/27 00:00:03;;;;;;;19.27;4.70;;;12.60;1.00;;;;;;5099062;28;20028;-60
2023/05/27 00:02:30;;;;;;;14.30;4.38;;;12.40;1.00;;;;;;5098857;28;20036;-61
2023/05/27 00:04:56;;;;;;;11.50;4.00;;;12.50;1.00;;;;;;5098918;28;20039;-60
2023/05/27 00:07:22;;;;;;;12.02;3.80;;;12.30;1.00;;;;;;5098015;28;20048;-60
2023/05/27 00:09:48;;;;;;;14.75;4.18;;;12.30;1.00;;;;;;5098859;28;20272;-60
2023/05/27 00:12:13;;;;;;;13.07;4.03;;;12.30;1.00;;;;;;5099225;28;20107;-60
2023/05/27 00:14:39;;;;;;;14.30;4.22;;;12.40;1.00;;;;;;5098440;28;20115;-60
2023/05/27 00:17:05;;;;;;;15.68;4.13;;;12.40;1.00;;;;;;5098729;28;20042;-60
2023/05/27 00:19:31;;;;;;;15.90;4.40;;;12.30;1.00;;;;;;5098259;28;20040;-61
2023/05/27 00:21:57;;;;;;;11.20;4.18;;;12.30;1.00;;;;;;5096996;28;20300;-60
2023/05/27 00:24:23;;;;;;;16.35;4.28;;;12.30;1.00;;;;;;5097852;28;20085;-60
2023/05/27 00:26:49;;;;;;;14.95;4.32;;;12.30;1.00;;;;;;5097802;28;20028;-61
2023/05/27 00:29:18;;;;;;;17.55;4.85;;;12.20;1.00;;;;;;5080876;28;20032;-61
2023/05/27 00:31:44;;;;;;;15.25;4.18;;;12.20;1.00;;;;;;5097824;28;20031;-59
2023/05/27 00:34:10;;;;;;;23.23;4.45;;;12.20;1.00;;;;;;5097644;28;20047;-61
2023/05/27 00:36:35;;;;;;;16.02;4.57;;;12.20;1.00;;;;;;5098412;28;20046;-60
2023/05/27 00:39:02;;;;;;;13.75;4.10;;;12.00;1.00;;;;;;5080766;28;20044;-60
2023/05/27 00:41:28;;;;;;;13.00;4.45;;;12.00;1.00;;;;;;5098271;28;20047;-60
2023/05/27 00:43:56;;;;;;;11.88;4.18;;;12.00;1.00;;;;;;5097386;28;20127;-61
2023/05/27 00:46:22;;;;;;;18.52;4.60;;;11.90;1.00;;;;;;5097300;28;20031;-61
2023/05/27 00:48:48;;;;;;;16.45;4.35;;;11.90;1.00;;;;;;5097368;28;20362;-60
2023/05/27 00:51:15;;;;;;;13.82;4.07;;;11.70;1.00;;;;;;5097990;28;20032;-61
2023/05/27 00:53:42;;;;;;;14.23;4.40;;;11.70;1.00;;;;;;5097890;28;20070;-63
2023/05/27 00:56:15;;;;;;;14.90;4.25;;;11.80;1.00;;;;;;5098275;28;20546;-60
2023/05/27 00:58:43;;;;;;;16.02;5.03;;;11.60;1.00;;;;;;5097320;28;20075;-60
2023/05/27 01:01:09;;;;;;;13.93;4.10;;;11.50;1.00;;;;;;5097837;28;20120;-60
2023/05/27 01:03:35;;;;;;;13.48;4.55;;;11.60;1.00;;;;;;5097879;28;20107;-60
2023/05/27 01:06:23;;;;;;;18.08;4.85;;;11.60;1.00;;;;;;5097807;28;20062;-59
2023/05/27 01:08:52;;;;;;;17.25;4.78;;;11.60;1.00;;;;;;5097799;28;20059;-60
2023/05/27 01:11:26;;;;;;;14.25;4.82;;;11.60;1.00;;;;;;5096828;28;20035;-60
2023/05/27 01:13:58;;;;;;;16.80;4.47;;;11.50;1.00;;;;;;5097741;28;20395;-59
2023/05/27 01:16:26;;;;;;;18.20;4.85;;;11.50;1.00;;;;;;5097769;28;20081;-62
2023/05/27 01:18:55;;;;;;;17.02;4.78;;;11.50;1.00;;;;;;5097776;28;20127;-60
2023/05/27 01:21:24;;;;;;;18.73;4.75;;;11.30;1.00;;;;;;5096646;28;20032;-61
2023/05/27 01:23:51;;;;;;;20.20;4.45;;;11.30;1.00;;;;;;5097685;28;20050;-61
2023/05/27 01:26:17;;;;;;;13.48;4.10;;;11.20;1.00;;;;;;5096657;28;20034;-60
2023/05/27 01:28:44;;;;;;;15.05;4.55;;;11.20;1.00;;;;;;5097440;28;20024;-61
2023/05/27 01:31:23;;;;;;;14.20;4.90;;;11.30;1.00;;;;;;5096309;28;20060;-61
2023/05/27 01:33:59;;;;;;;15.10;4.28;;;11.20;1.00;;;;;;5097430;28;20024;-60
2023/05/27 01:36:28;;;;;;;19.25;4.55;;;11.30;1.00;;;;;;5097420;28;20032;-60
2023/05/27 01:38:56;;;;;;;19.73;4.88;;;11.40;1.00;;;;;;5079709;28;20032;-60
2023/05/27 01:41:23;;;;;;;14.55;4.03;;;11.40;1.00;;;;;;5097538;28;20082;-60
2023/05/27 01:43:49;;;;;;;15.52;4.53;;;11.40;1.00;;;;;;5097219;28;20367;-60
2023/05/27 01:46:19;;;;;;;18.33;4.65;;;11.40;1.00;;;;;;5097177;28;20073;-59
2023/05/27 01:48:45;;;;;;;16.00;4.65;;;11.20;1.00;;;;;;5097163;28;20107;-60
2023/05/27 01:51:11;;;;;;;14.15;4.30;;;11.00;1.00;;;;;;5079710;28;20314;-59
2023/05/27 01:53:39;;;;;;;13.68;4.25;;;11.00;1.00;;;;;;5096212;28;20024;-60
2023/05/27 01:56:05;;;;;;;15.82;4.60;;;11.00;1.00;;;;;;5096295;28;20036;-61
2023/05/27 01:58:32;;;;;;;15.32;4.40;;;11.10;1.00;;;;;;5079676;28;20399;-59
2023/05/27 02:01:00;;;;;;;14.45;4.32;;;11.10;1.00;;;;;;5096200;28;20462;-60
2023/05/27 02:03:26;;;;;;;17.92;4.47;;;11.10;1.00;;;;;;5096133;28;20348;-59
2023/05/27 02:05:53;;;;;;;18.92;4.78;;;11.00;1.00;;;;;;5096068;28;20126;-60
2023/05/27 02:08:19;;;;;;;11.25;3.85;;;10.90;1.00;;;;;;5095926;28;20158;-59
2023/05/27 02:10:45;;;;;;;15.80;4.13;;;10.80;1.00;;;;;;5096094;28;20058;-58
2023/05/27 02:13:12;;;;;;;11.63;3.92;;;10.90;1.00;;;;;;5096875;28;20036;-60
2023/05/27 02:15:38;;;;;;;12.77;4.55;;;10.70;1.00;;;;;;5095903;28;20280;-59
2023/05/27 02:18:05;;;;;;;14.00;4.32;;;10.70;1.00;;;;;;5095964;28;20319;-60
2023/05/27 02:20:31;;;;;;;13.63;4.28;;;10.70;1.00;;;;;;5095966;28;20119;-59
2023/05/27 02:22:58;;;;;;;15.50;4.22;;;10.60;1.00;;;;;;5096103;28;20271;-59
2023/05/27 02:25:24;;;;;;;17.27;4.22;;;10.80;1.00;;;;;;5096350;28;20124;-60
2023/05/27 02:27:52;;;;;;;20.92;4.30;;;10.70;1.00;;;;;;5096733;28;20386;-59
2023/05/27 02:30:17;;;;;;;13.15;4.40;;;10.70;1.00;;;;;;5095857;28;20044;-59
2023/05/27 02:32:44;;;;;;;13.95;4.60;;;10.70;1.00;;;;;;5095835;28;20407;-60
2023/05/27 02:35:14;;;;;;;13.27;4.40;;;10.60;1.00;;;;;;5096561;28;20104;-59
2023/05/27 02:37:46;;;;;;;19.75;4.30;;;10.50;1.00;;;;;;5096880;28;20056;-59
2023/05/27 02:40:22;;;;;;;17.23;4.53;;;10.60;1.00;;;;;;5095784;28;20123;-59
2023/05/27 02:42:48;;;;;;;16.15;4.20;;;10.50;1.00;;;;;;5095654;28;20040;-60
2023/05/27 02:45:14;;;;;;;15.95;4.82;;;10.60;1.00;;;;;;5099163;28;20039;-60
2023/05/27 02:47:40;;;;;;;15.23;4.20;;;10.40;1.00;;;;;;5099670;28;20032;-61
2023/05/27 02:50:06;;;;;;;17.35;4.43;;;10.30;4.70;;;;;;5099670;28;20307;-60
2023/05/27 02:52:33;;;;;;;12.30;3.92;;;10.30;10.70;;;;;;5099567;28;20104;-60
2023/05/27 02:54:59;;;;;;;13.40;4.20;;;10.20;12.60;;;;;;5082504;28;20024;-61
2023/05/27 02:57:25;;;;;;;13.65;3.92;;;10.20;11.20;;;;;;5099407;28;20113;-60
2023/05/27 02:59:51;;;;;;;17.75;4.50;;;10.10;12.90;;;;;;5099311;28;20032;-61
2023/05/27 03:02:17;;;;;;;12.02;4.03;;;10.20;9.60;;;;;;5082560;28;20044;-59
2023/05/27 03:04:43;;;;;;;11.55;3.70;;;10.20;10.60;;;;;;5100555;28;20083;-60
2023/05/27 03:07:09;;;;;;;14.32;4.68;;;10.20;8.90;;;;;;5099848;28;20059;-59
2023/05/27 03:09:34;;;;;;;13.60;3.95;;;10.30;10.40;;;;;;5100437;28;20039;-60
2023/05/27 03:12:00;;;;;;;15.73;4.35;;;10.20;7.40;;;;;;5099202;28;20028;-60
2023/05/27 03:14:26;;;;;;;14.10;4.82;;;10.20;10.10;;;;;;5099299;28;20024;-60
2023/05/27 03:16:53;;;;;;;12.80;4.63;;;10.20;11.60;;;;;;5098960;28;20398;-60
2023/05/27 03:19:20;;;;;;;14.38;4.25;;;10.20;13.20;;;;;;5099765;28;20098;-60
2023/05/27 03:21:47;;;;;;;9.95;4.13;;;10.30;10.90;;;;;;5099120;28;20040;-59
2023/05/27 03:24:13;;;;;;;13.93;4.13;;;10.20;9.80;;;;;;5099845;28;20032;-59
2023/05/27 03:26:42;;;;;;;15.70;4.50;;;10.20;9.90;;;;;;5099897;28;20044;-59
2023/05/27 03:29:09;;;;;;;18.35;4.30;;;10.20;10.90;;;;;;5098897;28;20413;-60
2023/05/27 03:31:37;;;;;;;11.80;3.78;;;10.10;13.00;;;;;;5099675;28;20122;-59
2023/05/27 03:34:08;;;;;;;15.13;4.13;;;10.10;14.10;;;;;;5082586;28;20028;-60
2023/05/27 03:36:35;;;;;;;14.43;4.18;;;10.00;17.70;;;;;;5098798;28;20032;-60
2023/05/27 03:39:00;;;;;;;15.25;4.70;;;10.10;15.20;;;;;;5081875;28;20032;-60
2023/05/27 03:41:31;;;;;;;13.35;4.05;;;10.00;16.50;;;;;;5098258;28;20092;-60
2023/05/27 03:43:57;;;;;;;13.05;4.30;;;10.00;15.90;;;;;;5098521;28;20050;-60
2023/05/27 03:46:23;;;;;;;17.63;5.50;;;10.10;16.30;;;;;;5098557;28;20032;-60
2023/05/27 03:48:49;;;;;;;14.73;4.13;;;10.10;13.00;;;;;;5099347;28;20024;-60
2023/05/27 03:51:15;;;;;;;19.77;5.05;;;10.00;12.40;;;;;;5099136;28;20399;-60
2023/05/27 03:53:40;;;;;;;14.45;4.40;;;10.10;15.50;;;;;;5099081;28;20036;-60
2023/05/27 03:56:06;;;;;;;14.73;4.45;;;10.00;16.10;;;;;;5098079;28;20040;-60
2023/05/27 03:58:32;;;;;;;17.52;4.53;;;9.80;21.90;;;;;;5098187;28;20032;-60
2023/05/27 04:00:58;;;;;;;16.27;4.38;;;9.90;21.90;;;;;;5098017;28;20410;-60
2023/05/27 04:03:26;;;;;;;14.23;4.13;;;10.00;22.00;;;;;;5097954;28;20096;-60
2023/05/27 04:05:52;;;;;;;14.90;4.32;;;9.90;22.30;;;;;;5098945;28;20024;-60
2023/05/27 04:08:17;;;;;;;18.13;4.43;;;9.80;23.00;;;;;;5097944;28;20059;-59
2023/05/27 04:10:43;;;;;;;13.30;4.28;;;9.80;26.70;;;;;;5098704;28;20089;-60
2023/05/27 04:13:09;;;;;;;13.50;4.65;;;9.80;27.30;;;;;;5098101;28;20307;-60
2023/05/27 04:15:37;;;;;;;15.27;4.70;;;9.80;26.00;;;;;;5098189;28;20132;-59
2023/05/27 04:18:03;;;;;;;13.57;4.43;;;9.80;26.60;;;;;;5098736;28;20344;-60
2023/05/27 04:20:40;;;;;;;12.05;4.15;;;9.90;25.10;;;;;;5098847;28;20074;-59
2023/05/27 04:23:12;;;;;;;14.27;4.40;;;10.00;23.40;;;;;;5097858;28;20039;-64
2023/05/27 04:25:39;;;;;;;15.45;4.50;;;9.80;23.90;;;;;;5098644;28;20028;-60
2023/05/27 04:28:06;;;;;;;16.35;4.93;;;9.70;30.30;;;;;;5081120;28;20093;-60
2023/05/27 04:30:34;;;;;;;16.92;5.13;;;9.80;27.60;;;;;;5097783;28;20119;-61
2023/05/27 04:33:02;;;;;;;13.40;4.55;;;10.00;26.20;;;;;;5097604;28;20047;-60
2023/05/27 04:35:30;;;;;;;15.63;5.43;;;10.00;22.70;;;;;;5097733;28;20360;-60
2023/05/27 04:37:58;;;;;;;16.17;5.40;;;9.90;24.40;;;;;;5097420;28;20039;-59
2023/05/27 04:40:29;;;;;;;13.10;4.78;;;9.80;30.40;;;;;;5097567;28;20069;-60
2023/05/27 04:43:14;;;;;;;12.50;4.35;;;9.90;30.20;;;;;;5097583;28;20403;-60
2023/05/27 04:45:41;;;;;;;13.82;5.15;;;9.90;30.60;;;;;;5097580;28;20032;-60
2023/05/27 04:48:08;;;;;;;13.15;4.78;;;9.90;30.60;;;;;;5080545;28;20101;-60
2023/05/27 04:50:34;;;;;;;13.77;4.47;;;9.90;29.20;;;;;;5097310;28;20082;-60
2023/05/27 04:53:02;;;;;;;15.70;4.57;;;10.00;30.30;;;;;;5097255;28;20032;-60
2023/05/27 04:55:29;;;;;;;12.73;5.10;;;10.10;27.00;;;;;;5080317;28;20032;-59
2023/05/27 04:57:56;;;;;;;13.95;4.65;;;10.00;27.40;;;;;;5080219;28;20059;-59
2023/05/27 05:03:21;;;;;;;16.75;5.07;;;10.30;22.10;;;;;;5042700;28;20040;-61
2023/05/27 05:05:51;;;;;;;13.38;4.72;;;10.20;23.30;;;;;;5097615;28;20040;-59
2023/05/27 05:08:18;;;;;;;12.98;4.90;;;10.40;21.30;;;;;;5097275;28;20051;-60
2023/05/27 05:10:47;;;;;;;11.20;4.43;;;10.40;18.80;;;;;;5097838;28;20103;-60
2023/05/27 05:13:13;;;;;;;15.27;5.13;;;10.40;20.70;;;;;;5096856;28;20039;-59
2023/05/27 05:15:40;;;;;;;13.00;5.18;;;10.50;19.20;;;;;;5096811;28;20028;-59
2023/05/27 05:18:06;;;;;;;19.60;5.60;;;10.70;16.30;;;;;;5096705;28;20028;-61
2023/05/27 05:20:32;;;;;;;18.10;5.57;;;10.70;11.00;;;;;;5097437;28;20027;-60
2023/05/27 05:22:58;;;;;;;13.48;5.13;;;10.70;6.70;;;;;;5096670;28;20123;-60
2023/05/27 05:25:25;;;;;;;18.80;5.40;;;10.80;8.30;;;;;;5096611;28;20410;-60
2023/05/27 05:27:54;;;;;;;14.13;5.40;;;10.90;1.00;;;;;;5096633;28;20031;-60
2023/05/27 05:30:20;;;;;;;13.55;5.40;;;10.90;1.00;;;;;;5097450;28;20375;-59
2023/05/27 05:32:47;;;;;;;16.55;5.13;;;10.70;6.90;;;;;;5096889;28;20426;-59
2023/05/27 05:35:14;;;;;;;16.00;5.72;;;10.70;10.70;;;;;;5096655;28;20039;-59
2023/05/27 05:37:45;;;;;;;13.13;5.32;;;10.90;10.90;;;;;;5080542;28;20093;-60
2023/05/27 05:40:11;;;;;;;20.75;5.82;;;10.90;7.90;;;;;;5096854;28;20059;-61
2023/05/27 05:42:44;;;;;;;;;;;11.10;6.30;;;;;;5080871;28;20028;-62
2023/05/27 05:45:10;;;;;;;14.63;4.95;;;11.20;1.00;;;;;;5096517;28;19912;-64
2023/05/27 05:47:37;;;;;;;14.85;5.03;;;11.30;1.00;;;;;;5079797;28;20035;-61
2023/05/27 05:50:09;;;;;;;15.98;5.72;;;11.40;1.00;;;;;;5096524;28;20036;-61
2023/05/27 05:52:39;;;;;;;20.63;5.78;;;11.40;1.00;;;;;;5079883;28;20032;-60
2023/05/27 05:55:05;;;;;;;18.75;5.88;;;11.40;1.00;;;;;;5096218;28;20032;-61
2023/05/27 05:57:32;;;;;;;13.45;5.22;;;11.60;1.00;;;;;;5096101;28;20042;-61
2023/05/27 05:59:58;;;;;;;14.38;5.45;;;11.70;1.00;;;;;;5096305;28;20032;-59
2023/05/27 06:02:25;;;;;;;15.95;5.53;;;11.70;1.00;;;;;;5046273;28;20289;-59
2023/05/27 06:04:51;;;;;;;16.23;5.60;;;11.90;1.00;;;;;;5096203;28;20038;-60
2023/05/27 06:07:17;;;;;;;14.65;5.18;;;12.00;1.00;;;;;;5095879;28;20083;-65
2023/05/27 06:09:49;;;;;;;14.95;5.07;;;12.10;1.00;;;;;;5096156;28;20036;-60
2023/05/27 06:12:32;;;;;;;14.52;5.38;;;12.10;1.00;;;;;;5067676;28;20036;-60
2023/05/27 06:14:58;;;;;;;13.70;5.40;;;12.10;1.00;;;;;;5079347;28;20331;-63
2023/05/27 06:17:32;;;;;;;16.10;5.13;;;12.20;1.00;;;;;;5096421;28;20333;-62
2023/05/27 06:19:58;;;;;;;16.73;6.15;;;12.30;1.00;;;;;;5099234;28;20094;-60
2023/05/27 06:22:24;;;;;;;14.23;5.07;;;12.50;1.00;;;;;;5100052;28;20040;-63
2023/05/27 06:25:12;;;;;;;15.43;5.25;;;12.60;1.00;;;;;;5089543;28;20036;-59
2023/05/27 06:27:52;;;;;;;13.43;5.38;;;12.60;1.00;;;;;;5100022;28;20117;-60
2023/05/27 06:30:18;;;;;;;13.82;5.38;;;12.60;1.00;;;;;;5083245;28;20097;-64
2023/05/27 06:32:46;;;;;;;14.48;5.30;;;12.60;1.00;;;;;;5100269;28;20481;-61
2023/05/27 06:35:13;;;;;;;16.83;5.57;;;12.70;1.00;;;;;;5100066;28;20312;-60
2023/05/27 06:37:38;;;;;;;17.88;5.53;;;12.80;1.00;;;;;;5099849;28;20032;-60
2023/05/27 06:40:05;;;;;;;19.58;5.57;;;13.00;1.00;;;;;;5099821;28;20334;-59
2023/05/27 06:42:32;;;;;;;15.88;4.90;;;13.00;1.00;;;;;;5066549;28;20025;-60
2023/05/27 06:45:16;;;;;;;11.50;5.28;;;13.20;1.00;;;;;;5101245;28;20093;-59
2023/05/27 06:47:47;;;;;;;18.42;5.70;;;13.30;1.00;;;;;;5083105;28;20055;-60
2023/05/27 06:50:13;;;;;;;15.93;5.35;;;13.50;1.00;;;;;;5100531;28;20040;-60
2023/05/27 06:52:39;;;;;;;14.73;5.07;;;13.50;1.00;;;;;;5099595;28;20473;-61
2023/05/27 06:55:34;;;;;;;17.23;5.22;;;13.60;1.00;;;;;;5086601;28;20036;-60
2023/05/27 06:58:28;;;;;;;18.50;4.93;;;13.70;1.00;;;;;;5099624;28;20139;-65
2023/05/27 07:00:57;;;;;;;13.73;5.32;;;13.80;1.00;;;;;;5100141;28;20036;-60
2023/05/27 07:03:29;;;;;;;16.75;5.10;;;13.60;1.00;;;;;;5083377;28;20028;-59
2023/05/27 07:05:55;;;;;;;16.17;5.90;;;13.80;1.00;;;;;;5099285;28;20035;-62
2023/05/27 07:08:22;;;;;;;13.50;4.90;;;13.80;1.00;;;;;;5082524;28;20069;-60
2023/05/27 07:10:59;;;;;;;16.13;5.10;;;13.90;1.00;;;;;;5084261;28;20426;-63
2023/05/27 07:13:25;;;;;;;16.63;5.20;;;14.10;1.00;;;;;;5099264;28;20326;-61
2023/05/27 07:15:52;;;;;;;14.88;5.43;;;14.00;1.00;;;;;;5099215;28;20086;-60
2023/05/27 07:18:18;;;;;;;14.98;5.07;;;14.10;1.00;;;;;;5099908;28;20128;-60
2023/05/27 07:20:45;;;;;;;12.55;4.80;;;14.20;1.00;;;;;;5099064;28;20028;-65
2023/05/27 07:23:12;;;;;;;18.00;5.55;;;14.40;1.00;;;;;;5082482;28;20028;-62
2023/05/27 07:25:40;;;;;;;16.40;5.85;;;14.60;1.00;;;;;;5099057;28;20418;-64
2023/05/27 07:28:06;;;;;;;17.48;5.55;;;14.70;1.00;;;;;;5082229;28;20047;-61
2023/05/27 07:30:38;;;;;;;16.05;5.63;;;14.80;1.00;;;;;;5082924;28;20085;-59
2023/05/27 07:33:05;;;;;;;15.40;4.70;;;14.70;1.00;;;;;;5098794;28;20040;-60
2023/05/27 07:35:31;;;;;;;17.15;5.60;;;14.80;1.00;;;;;;5098842;28;20137;-61
2023/05/27 07:37:57;;;;;;;16.17;5.70;;;15.10;1.00;;;;;;5099030;28;20098;-60
2023/05/27 07:40:24;;;;;;;16.50;5.78;;;15.10;1.00;;;;;;5099907;28;20020;-61
2023/05/27 07:42:50;;;;;;;16.30;5.38;;;15.20;1.00;;;;;;5099432;28;20089;-58
2023/05/27 07:45:16;;;;;;;14.48;5.43;;;15.20;1.00;;;;;;5099759;28;20020;-59
2023/05/27 07:47:42;;;;;;;16.65;5.78;;;15.10;1.00;;;;;;5098523;28;20027;-59
2023/05/27 07:50:08;;;;;;;16.92;5.10;;;15.10;1.00;;;;;;5099630;28;20388;-60
2023/05/27 07:52:57;;;;;;;14.48;5.20;;;15.20;1.00;;;;;;5099253;28;20041;-58
2023/05/27 07:55:26;;;;;;;11.77;5.55;;;15.30;1.00;;;;;;5081971;28;20056;-58
2023/05/27 07:57:56;;;;;;;15.38;5.65;;;15.30;1.00;;;;;;5098253;28;20070;-61
2023/05/27 08:00:25;;;;;;;16.23;5.55;;;15.40;1.00;;;;;;5099110;28;20032;-60
2023/05/27 08:02:54;;;;;;;15.00;4.93;;;15.50;1.00;;;;;;5098997;28;20330;-59
2023/05/27 08:05:40;;;;;;;12.70;4.85;;;15.60;1.00;;;;;;5098432;28;20036;-59
2023/05/27 08:08:26;;;;;;;13.35;5.20;;;15.40;1.00;;;;;;5084613;28;20044;-59
2023/05/27 08:11:25;;;;;;;13.88;5.25;;;15.40;1.00;;;;;;5076221;28;20040;-61
2023/05/27 08:14:00;;;;;;;19.38;5.45;;;15.50;1.00;;;;;;5098092;28;20032;-61
2023/05/27 08:16:46;;;;;;;16.20;5.05;;;15.60;1.00;;;;;;5098240;28;20051;-60
2023/05/27 08:19:20;;;;;;;12.43;4.85;;;15.70;1.00;;;;;;5098221;28;20035;-58
2023/05/27 08:22:08;;;;;;;17.58;5.65;;;15.90;1.00;;;;;;5097832;28;20063;-72
2023/05/27 08:24:54;;;;;;;13.45;5.53;;;16.10;1.00;;;;;;5098504;28;20059;-72
2023/05/27 08:27:51;;;;;;;18.55;6.25;;;16.40;1.00;;;;;;5099220;28;20052;-73
2023/05/27 08:30:40;;;;;;;15.45;5.20;;;16.40;1.00;;;;;;5098966;28;20039;-70
2023/05/27 08:33:09;;;;;;;18.30;6.65;;;16.60;1.00;;;;;;5081259;28;20038;-68
2023/05/27 08:35:35;;;;;;;18.48;5.15;;;16.40;1.00;;;;;;5080900;28;20039;-72
2023/05/27 08:38:02;;;;;;;15.98;5.22;;;16.50;1.00;;;;;;5097376;28;20054;-60
2023/05/27 08:40:32;;;;;;;14.82;5.70;;;16.60;1.00;;;;;;5081452;28;20028;-59
2023/05/27 08:42:59;;;;;;;16.60;5.47;;;16.60;1.00;;;;;;5080398;28;20040;-61
2023/05/27 08:45:26;;;;;;;22.40;5.45;;;16.70;1.00;;;;;;5097444;28;20020;-59
2023/05/27 08:47:53;;;;;;;18.27;5.47;;;16.90;1.00;;;;;;5098193;28;20036;-57
2023/05/27 08:50:23;;;;;;;14.25;4.90;;;17.10;1.00;;;;;;5097449;28;20020;-58
2023/05/27 08:52:54;;;;;;;14.18;5.63;;;17.00;99.90;;;;;;5097276;28;20046;-59
2023/05/27 08:55:22;;;;;;;15.18;5.35;;;17.00;99.90;;;;;;5097241;28;20024;-62
2023/05/27 08:57:56;;;;;;;15.45;5.60;;;16.90;99.90;;;;;;5080442;28;20039;-60
2023/05/27 09:00:25;;;;;;;14.65;5.60;;;17.10;99.90;;;;;;5080505;28;20036;-61
2023/05/27 09:02:58;;;;;;;14.68;4.90;;;17.20;99.90;;;;;;5080471;28;20097;-61
2023/05/27 09:05:29;;;;;;;14.35;5.40;;;17.30;99.90;;;;;;5097015;28;20051;-62
2023/05/27 09:07:55;;;;;;;17.60;5.78;;;17.40;99.90;;;;;;5079812;28;20036;-59
2023/05/27 09:10:21;;;;;;;14.00;4.85;;;17.70;99.90;;;;;;5097803;28;20032;-58
2023/05/27 09:12:47;;;;;;;15.15;5.18;;;17.90;99.90;;;;;;5096871;28;20032;-66
2023/05/27 09:15:13;;;;;;;18.08;5.15;;;17.80;99.90;;;;;;5097052;28;20346;-66
2023/05/27 09:17:44;;;;;;;10.73;4.57;;;17.90;48.10;;;;;;5096914;28;20076;-67
2023/05/27 09:20:13;;;;;;;16.20;5.15;;;18.20;13.50;;;;;;5080174;28;20346;-70
2023/05/27 09:22:40;;;;;;;23.40;5.30;;;18.30;1.00;;;;;;5097525;28;20047;-67
2023/05/27 09:25:07;;;;;;;15.65;5.40;;;18.20;1.00;;;;;;5096952;28;20315;-63
2023/05/27 09:27:33;;;;;;;16.45;5.70;;;18.30;1.00;;;;;;5079839;28;20090;-66
2023/05/27 09:30:07;;;;;;;24.58;5.75;;;18.40;1.00;;;;;;5096884;28;20024;-64
2023/05/27 09:32:33;;;;;;;23.88;5.78;;;18.30;1.00;;;;;;5079851;28;20063;-62
2023/05/27 09:35:01;;;;;;;21.20;5.53;;;18.60;99.90;;;;;;5080069;28;20389;-66
2023/05/27 09:37:32;;;;;;;17.95;5.28;;;18.50;99.90;;;;;;5096511;28;20046;-65
2023/05/27 09:40:16;;;;;;;15.05;5.10;;;18.40;99.90;;;;;;5063644;28;20076;-64
2023/05/27 09:42:43;;;;;;;18.25;4.88;;;18.60;99.90;;;;;;5097303;28;20127;-64
2023/05/27 09:45:12;;;;;;;20.25;5.43;;;18.90;1.00;;;;;;5079741;28;20036;-67
2023/05/27 09:47:46;;;;;;;14.60;5.30;;;19.00;99.90;;;;;;5097263;28;20082;-70
2023/05/27 09:50:15;;;;;;;16.25;5.18;;;19.10;1.00;;;;;;5079680;28;20047;-71
2023/05/27 09:52:43;;;;;;;14.38;5.00;;;19.20;1.00;;;;;;5079319;28;20055;-71
2023/05/27 09:55:13;;;;;;;13.95;4.57;;;19.10;1.00;;;;;;5096574;28;20284;-69
2023/05/27 09:57:40;;;;;;;18.35;5.50;;;19.00;1.00;;;;;;5096285;28;20040;-70
2023/05/27 10:00:17;;;;;;;10.60;4.65;;;19.30;99.90;;;;;;5097002;28;20040;-70
2023/05/27 10:02:46;;;;;;;15.07;4.75;;;19.60;99.90;;;;;;5065030;28;20036;-70
2023/05/27 10:05:14;;;;;;;14.07;4.70;;;19.80;99.90;;;;;;5096220;28;20299;-71
2023/05/27 10:07:43;;;;;;;14.75;4.70;;;19.90;1.00;;;;;;5079599;28;20058;-71
2023/05/27 10:10:11;;;;;;;15.38;5.13;;;20.10;99.90;;;;;;5079440;28;20039;-69
2023/05/27 10:12:38;;;;;;;14.70;4.97;;;20.00;99.90;;;;;;5096169;28;20036;-70
2023/05/27 10:15:05;;;;;;;11.13;4.72;;;20.10;6.40;;;;;;5079263;28;20021;-70
2023/05/27 10:17:49;;;;;;;14.20;4.72;;;20.10;1.00;;;;;;5096505;28;20399;-70
2023/05/27 10:20:49;;;;;;;12.70;4.65;;;20.30;99.90;;;;;;5096362;28;20039;-70
2023/05/27 10:23:16;;;;;;;15.70;5.00;;;19.90;1.00;;;;;;5089682;28;20113;-70
2023/05/27 10:25:51;;;;;;;13.55;4.72;;;20.10;1.00;;;;;;5079245;28;20387;-70
2023/05/27 10:28:23;;;;;;;13.38;4.60;;;20.50;1.00;;;;;;5096848;28;20114;-71
2023/05/27 10:30:49;;;;;;;14.00;4.80;;;20.70;99.90;;;;;;5096783;28;20047;-71
2023/05/27 10:33:15;;;;;;;15.85;4.47;;;20.90;99.90;;;;;;5062373;28;20044;-71
2023/05/27 10:35:42;;;;;;;13.88;4.70;;;21.10;99.90;;;;;;5079446;28;20025;-72
2023/05/27 10:38:18;;;;;;;13.77;4.45;;;21.20;99.90;;;;;;5096963;28;20043;-71
2023/05/27 10:40:46;;;;;;;12.10;5.00;;;21.30;1.00;;;;;;5079516;28;20036;-70
2023/05/27 10:43:18;;;;;;;15.82;5.10;;;21.20;1.00;;;;;;5097204;28;20020;-71
2023/05/27 10:45:45;;;;;;;;;;;21.20;1.00;;;;;;5096342;28;20032;-70
2023/05/27 10:48:27;;;;;;;13.65;5.38;;;21.30;99.90;;;;;;5096004;28;19944;-70
2023/05/27 10:50:53;;;;;;;13.90;5.03;;;21.30;1.00;;;;;;5096679;28;20035;-70
2023/05/27 10:53:21;;;;;;;13.10;4.50;;;21.40;1.00;;;;;;5079055;28;20453;-71
2023/05/27 10:55:51;;;;;;;12.82;5.43;;;21.60;1.00;;;;;;5096580;28;20024;-70
2023/05/27 10:58:17;;;;;;;16.90;5.05;;;21.70;1.00;;;;;;5095946;28;20101;-70
2023/05/27 11:00:51;;;;;;;14.13;4.88;;;22.30;72.90;;;;;;5095808;28;20024;-71
2023/05/27 11:03:28;;;;;;;13.23;4.20;;;22.20;99.90;;;;;;5095719;28;20024;-70
2023/05/27 11:06:05;;;;;;;11.77;4.25;;;23.50;72.90;;;;;;5081702;28;20036;-71
2023/05/27 11:08:32;;;;;;;11.95;3.70;;;24.50;1.00;;;;;;5099344;28;20047;-72
2023/05/27 11:11:12;;;;;;;10.13;3.10;;;25.80;99.90;;;;;;5082589;28;20020;-70
2023/05/27 11:13:43;;;;;;;10.75;4.30;;;26.30;1.00;;;;;;5082504;28;20104;-71
2023/05/27 11:16:09;;;;;;;9.95;3.97;;;28.20;1.00;;;;;;5100131;28;20111;-70
2023/05/27 11:18:40;;;;;;;11.80;3.72;;;29.00;99.90;;;;;;5099325;28;20299;-70
2023/05/27 11:21:10;;;;;;;10.05;3.75;;;27.90;99.90;;;;;;5099390;28;20123;-71
2023/05/27 11:23:43;;;;;;;13.43;4.22;;;28.00;99.90;;;;;;5099536;28;20371;-71
2023/05/27 11:26:19;;;;;;;11.13;4.07;;;29.10;99.90;;;;;;5100296;28;20363;-70
2023/05/27 11:28:47;;;;;;;11.60;4.32;;;28.40;99.90;;;;;;5099127;28;20039;-70
2023/05/27 11:31:14;;;;;;;14.85;4.45;;;28.40;99.90;;;;;;5100315;28;20034;-69
2023/05/27 11:33:44;;;;;;;8.80;3.70;;;29.30;99.90;;;;;;5099891;28;20035;-70
2023/05/27 11:36:14;;;;;;;11.00;3.78;;;28.80;99.90;;;;;;5099055;28;20114;-69
2023/05/27 11:38:48;;;;;;;9.55;4.10;;;27.60;99.90;;;;;;5098818;28;20123;-71
2023/05/27 11:41:14;;;;;;;10.48;3.92;;;28.80;99.90;;;;;;5099469;28;20032;-71
2023/05/27 11:44:12;;;;;;;7.35;3.83;;;30.30;99.90;;;;;;5065229;28;20039;-73
2023/05/27 11:46:40;;;;;;;9.55;4.22;;;29.30;99.90;;;;;;5065753;28;20040;-72
2023/05/27 11:49:08;;;;;;;10.23;3.88;;;30.30;99.90;;;;;;5099181;28;20024;-72
2023/05/27 11:51:36;;;;;;;10.65;4.10;;;31.00;99.90;;;;;;5098386;28;20384;-70
2023/05/27 11:54:02;;;;;;;13.35;4.00;;;32.20;92.90;;;;;;5098612;28;20096;-70
2023/05/27 11:56:31;;;;;;;7.70;3.78;;;31.20;42.10;;;;;;5099107;28;20115;-73
2023/05/27 11:58:58;;;;;;;11.63;4.35;;;30.20;51.70;;;;;;5081616;28;20030;-73
2023/05/27 12:01:23;;;;;;;12.77;4.10;;;30.80;49.40;;;;;;5065000;28;20028;-73
2023/05/27 12:03:49;;;;;;;10.45;3.95;;;30.00;42.10;;;;;;5099138;28;20035;-74
2023/05/27 12:06:15;;;;;;;11.27;3.70;;;31.30;30.00;;;;;;5081481;28;20028;-74
2023/05/27 12:08:44;;;;;;;8.80;3.60;;;31.40;10.30;;;;;;5098225;28;20047;-70
2023/05/27 12:11:10;;;;;;;8.88;3.65;;;32.30;5.50;;;;;;5098314;28;20387;-72
2023/05/27 12:13:36;;;;;;;14.82;4.07;;;32.00;1.00;;;;;;5098180;28;20089;-70
2023/05/27 12:16:03;;;;;;;10.00;4.18;;;32.80;1.00;;;;;;5098163;28;20024;-70
2023/05/27 12:18:29;;;;;;;9.73;3.70;;;32.10;1.00;;;;;;5081539;28;20484;-69
2023/05/27 12:20:55;;;;;;;12.18;4.18;;;32.70;1.00;;;;;;5097955;28;20035;-69
2023/05/27 12:23:21;;;;;;;11.57;4.35;;;34.60;1.00;;;;;;5097953;28;20048;-69
2023/05/27 12:25:47;;;;;;;14.23;4.78;;;34.50;1.00;;;;;;5081180;28;20056;-68
2023/05/27 12:28:13;;;;;;;10.50;4.43;;;33.40;1.00;;;;;;5080918;28;20035;-68
2023/05/27 12:30:39;;;;;;;9.95;3.90;;;32.50;1.00;;;;;;5098169;28;20071;-70
2023/05/27 12:33:06;;;;;;;8.88;3.55;;;32.50;1.00;;;;;;5064644;28;20031;-71
2023/05/27 12:35:33;;;;;;;11.45;3.63;;;33.70;1.00;;;;;;5098594;28;20097;-69
2023/05/27 12:37:59;;;;;;;7.40;3.30;;;35.30;1.00;;;;;;5097808;28;20052;-72
2023/05/27 12:40:26;;;;;;;10.30;3.55;;;34.50;1.00;;;;;;5097763;28;20123;-71
2023/05/27 12:42:52;;;;;;;16.05;3.83;;;35.30;1.00;;;;;;5098662;28;20035;-72
2023/05/27 12:45:21;;;;;;;9.10;3.63;;;34.80;1.00;;;;;;5098427;28;20103;-70
2023/05/27 12:47:48;;;;;;;13.63;3.83;;;33.40;1.00;;;;;;5097563;28;20031;-70
2023/05/27 12:50:14;;;;;;;12.60;4.35;;;34.40;1.00;;;;;;5098324;28;20085;-69
2023/05/27 12:52:46;;;;;;;12.23;3.75;;;33.40;1.00;;;;;;5097410;28;20038;-69
2023/05/27 12:55:13;;;;;;;9.88;3.70;;;34.30;1.00;;;;;;5097464;28;20117;-71
2023/05/27 12:57:39;;;;;;;11.27;3.78;;;32.90;1.00;;;;;;5097370;28;20048;-70